Time;durP1;ratioP1;P1;durP2;ratioP2;P2;SDS_P1;SDS_P2;PMS_P1;PMS_P2;Temp;Humidity;BMP_temperature;BMP_pressure;BME280_temperature;BME280_humidity;BME280_pressure;Samples;Min_cycle;Max_cycle;Signal;HPM_P1;HPM_P2
2024/02/04 00:01:06;;;;;;;;;;;;;;;9.02;90.85;101273.59;4213572;28;20028;-70
2024/02/04 00:03:08;;;;;;;;;;;;;;;9.04;90.99;101275.28;4213121;28;20040;-70
2024/02/04 00:05:10;;;;;;;;;;;;;;;9.03;90.75;101277.16;4213066;28;20027;-70
2024/02/04 00:07:13;;;;;;;;;;;;;;;9.01;90.11;101269.22;4212620;28;20578;-70
2024/02/04 00:09:15;;;;;;;;;;;;;;;9.01;90.06;101261.13;4213713;28;20026;-70
2024/02/04 00:11:16;;;;;;;;;;;;;;;9.02;89.85;101268.19;4211779;28;20449;-70
2024/02/04 00:13:18;;;;;;;;;;;;;;;9.00;89.47;101270.22;4213178;28;20006;-70
2024/02/04 00:15:20;;;;;;;;;;;;;;;9.02;89.34;101270.88;4213025;28;20031;-70
2024/02/04 00:17:22;;;;;;;;;;;;;;;9.04;89.59;101275.28;4213390;28;19925;-70
2024/02/04 00:19:23;;;;;;;;;;;;;;;9.04;89.67;101291.44;4212943;28;20027;-70
2024/02/04 00:21:25;;;;;;;;;;;;;;;9.03;89.76;101285.22;4212246;28;20390;-69
2024/02/04 00:23:29;;;;;;;;;;;;;;;9.03;89.35;101266.38;4213667;28;20042;-70
2024/02/04 00:25:31;;;;;;;;;;;;;;;9.03;89.38;101271.75;4212518;28;20019;-70
2024/02/04 00:27:33;;;;;;;;;;;;;;;9.01;89.17;101271.91;4212851;28;20364;-70
2024/02/04 00:29:34;;;;;;;;;;;;;;;9.04;89.13;101278.81;4212230;28;20350;-70
2024/02/04 00:31:36;;;;;;;;;;;;;;;9.02;88.85;101278.97;4194855;28;19928;-70
2024/02/04 00:33:38;;;;;;;;;;;;;;;9.03;88.85;101263.66;4212957;28;20018;-70
2024/02/04 00:35:39;;;;;;;;;;;;;;;9.01;88.63;101271.03;4212673;28;20449;-70
2024/02/04 00:37:41;;;;;;;;;;;;;;;9.02;88.64;101286.22;4194143;28;19929;-70
2024/02/04 00:39:44;;;;;;;;;;;;;;;8.99;87.50;101290.06;4212486;28;20023;-70
2024/02/04 00:41:46;;;;;;;;;;;;;;;8.97;86.87;101283.97;4211061;28;20007;-69
2024/02/04 00:43:48;;;;;;;;;;;;;;;8.97;86.79;101283.16;4212074;28;20030;-69
2024/02/04 00:45:50;;;;;;;;;;;;;;;8.95;86.79;101296.78;4211079;28;20035;-70
2024/02/04 00:47:52;;;;;;;;;;;;;;;8.95;86.60;101280.59;4212205;28;20018;-70
2024/02/04 00:49:54;;;;;;;;;;;;;;;8.92;85.31;101271.97;4211370;28;20030;-70
2024/02/04 00:51:56;;;;;;;;;;;;;;;8.92;85.62;101264.75;4194559;28;20016;-70
2024/02/04 00:53:58;;;;;;;;;;;;;;;8.90;84.93;101258.63;4212016;28;20022;-70
2024/02/04 00:56:01;;;;;;;;;;;;;;;8.89;84.55;101250.75;4194642;28;20020;-70
2024/02/04 00:58:03;;;;;;;;;;;;;;;8.88;84.21;101265.19;4195179;28;19983;-69
2024/02/04 01:00:06;;;;;;;;;;;;;;;8.88;84.28;101259.81;4202089;28;20018;-70
2024/02/04 01:02:08;;;;;;;;;;;;;;;8.87;84.51;101266.19;4211205;28;20019;-70
2024/02/04 01:04:10;;;;;;;;;;;;;;;8.86;84.19;101269.91;4194852;28;20023;-70
2024/02/04 01:06:12;;;;;;;;;;;;;;;8.84;84.51;101267.38;4192827;28;21089;-70
2024/02/04 01:08:14;;;;;;;;;;;;;;;8.83;84.56;101265.66;4194401;28;20023;-70
2024/02/04 01:10:16;;;;;;;;;;;;;;;8.83;84.78;101265.66;4210746;28;20364;-69
2024/02/04 01:12:20;;;;;;;;;;;;;;;8.82;85.00;101258.56;4193162;28;20047;-70
2024/02/04 01:14:22;;;;;;;;;;;;;;;8.82;85.12;101255.88;4193930;28;20022;-70
2024/02/04 01:16:24;;;;;;;;;;;;;;;8.80;85.26;101252.50;4187498;28;20028;-70
2024/02/04 01:18:26;;;;;;;;;;;;;;;8.79;84.54;101251.66;4212132;28;20376;-70
2024/02/04 01:20:28;;;;;;;;;;;;;;;8.77;84.04;101250.09;4212183;28;20433;-70
2024/02/04 01:22:30;;;;;;;;;;;;;;;8.74;84.03;101245.88;4211953;28;20055;-69
2024/02/04 01:24:32;;;;;;;;;;;;;;;8.75;83.87;101244.03;4193548;28;20027;-70
2024/02/04 01:26:34;;;;;;;;;;;;;;;8.72;83.93;101242.47;4212196;28;20035;-70
2024/02/04 01:28:38;;;;;;;;;;;;;;;8.71;83.54;101248.84;4211091;28;20086;-70
2024/02/04 01:30:40;;;;;;;;;;;;;;;8.71;83.97;101261.50;4185265;28;20369;-70
2024/02/04 01:32:41;;;;;;;;;;;;;;;8.70;83.81;101262.47;4210423;28;20023;-69
2024/02/04 01:34:42;;;;;;;;;;;;;;;8.69;83.74;101255.41;4211435;28;20403;-70
2024/02/04 01:36:44;;;;;;;;;;;;;;;8.68;83.66;101248.31;4193383;28;20028;-70
2024/02/04 01:38:46;;;;;;;;;;;;;;;8.66;83.40;101264.63;4212061;28;19928;-70
2024/02/04 01:40:49;;;;;;;;;;;;;;;8.65;83.63;101260.25;4193550;28;20039;-70
2024/02/04 01:42:51;;;;;;;;;;;;;;;8.63;83.35;101257.69;4210171;28;20714;-70
2024/02/04 01:44:54;;;;;;;;;;;;;;;8.61;83.14;101257.00;4193275;28;20015;-70
2024/02/04 01:46:57;;;;;;;;;;;;;;;8.59;82.76;101255.47;4211919;28;20018;-70
2024/02/04 01:48:59;;;;;;;;;;;;;;;8.57;82.59;101263.69;4212002;28;20424;-70
2024/02/04 01:51:00;;;;;;;;;;;;;;;8.56;82.78;101256.63;4193040;28;20019;-70
2024/02/04 01:53:02;;;;;;;;;;;;;;;8.53;82.20;101256.09;4211685;28;20022;-70
2024/02/04 01:55:04;;;;;;;;;;;;;;;8.51;82.01;101255.38;4211792;28;20022;-70
2024/02/04 01:57:06;;;;;;;;;;;;;;;8.51;82.12;101260.75;4193425;28;20444;-70
2024/02/04 01:59:08;;;;;;;;;;;;;;;8.48;82.08;101265.44;4191652;28;19925;-70
2024/02/04 02:01:12;;;;;;;;;;;;;;;8.47;82.35;101269.13;4209183;28;20401;-70
2024/02/04 02:03:14;;;;;;;;;;;;;;;8.45;82.17;101265.75;4193414;28;20023;-70
2024/02/04 02:05:16;;;;;;;;;;;;;;;8.44;82.17;101257.81;4192399;28;20023;-70
2024/02/04 02:07:19;;;;;;;;;;;;;;;8.43;82.76;101258.78;4192628;28;20015;-70
2024/02/04 02:09:22;;;;;;;;;;;;;;;8.40;82.88;101262.66;4193982;28;20090;-70
2024/02/04 02:11:28;;;;;;;;;;;;;;;8.38;83.08;101267.31;4191982;28;20023;-70
2024/02/04 02:13:31;;;;;;;;;;;;;;;8.37;83.59;101252.16;4210691;28;20375;-70
2024/02/04 02:15:36;;;;;;;;;;;;;;;8.36;83.49;101257.72;4193685;28;20011;-70
2024/02/04 02:17:46;;;;;;;;;;;;;;;8.34;83.54;101257.84;4193294;28;20473;-70
2024/02/04 02:19:49;;;;;;;;;;;;;;;8.33;83.87;101260.69;4191608;28;20422;-70
2024/02/04 02:21:50;;;;;;;;;;;;;;;8.33;84.03;101252.63;4209753;28;20028;-70
2024/02/04 02:23:54;;;;;;;;;;;;;;;8.30;84.25;101243.81;4193638;28;20030;-70
2024/02/04 02:25:58;;;;;;;;;;;;;;;8.27;84.07;101232.53;4179533;28;20011;-70
2024/02/04 02:28:00;;;;;;;;;;;;;;;8.27;83.87;101224.44;4209443;28;20007;-70
2024/02/04 02:30:03;;;;;;;;;;;;;;;8.26;84.05;101226.31;4210920;28;20023;-70
2024/02/04 02:32:05;;;;;;;;;;;;;;;8.24;83.96;101230.97;4185628;28;20028;-70
2024/02/04 02:34:07;;;;;;;;;;;;;;;8.23;83.93;101236.53;4209459;28;20062;-70
2024/02/04 02:36:14;;;;;;;;;;;;;;;8.20;84.02;101240.34;4209607;28;20015;-69
2024/02/04 02:38:16;;;;;;;;;;;;;;;8.20;84.08;101237.66;4185381;28;20023;-70
2024/02/04 02:40:20;;;;;;;;;;;;;;;8.18;84.39;101230.72;4209263;28;20390;-70
2024/02/04 02:42:23;;;;;;;;;;;;;;;8.18;84.31;101219.97;4210150;28;20015;-70
2024/02/04 02:44:26;;;;;;;;;;;;;;;8.14;84.14;101221.28;4193646;28;20020;-70
2024/02/04 02:46:28;;;;;;;;;;;;;;;8.12;84.11;101222.28;4192655;28;20022;-70
2024/02/04 02:48:30;;;;;;;;;;;;;;;8.11;84.07;101225.94;4210057;28;20007;-70
2024/02/04 02:50:33;;;;;;;;;;;;;;;8.09;84.21;101227.09;4193102;28;20030;-70
2024/02/04 02:52:35;;;;;;;;;;;;;;;8.07;84.44;101232.63;4210717;28;20010;-70
2024/02/04 02:54:37;;;;;;;;;;;;;;;8.06;84.31;101241.69;4209997;28;20011;-70
2024/02/04 02:56:39;;;;;;;;;;;;;;;8.06;84.50;101248.94;4192640;28;20035;-70
2024/02/04 02:58:42;;;;;;;;;;;;;;;8.04;84.70;101251.75;4209531;28;20027;-69
2024/02/04 03:00:45;;;;;;;;;;;;;;;8.03;84.70;101249.22;4210240;28;20377;-69
2024/02/04 03:02:47;;;;;;;;;;;;;;;8.01;84.64;101253.88;4209039;28;20019;-70
2024/02/04 03:04:49;;;;;;;;;;;;;;;8.00;84.91;101244.13;4192572;28;20011;-70
2024/02/04 03:06:51;;;;;;;;;;;;;;;7.98;85.07;101241.59;4209282;28;20011;-70
2024/02/04 03:08:53;;;;;;;;;;;;;;;7.98;85.08;101240.72;4193368;28;20063;-70
2024/02/04 03:10:55;;;;;;;;;;;;;;;7.96;85.42;101237.34;4191092;28;20015;-70
2024/02/04 03:12:57;;;;;;;;;;;;;;;7.97;85.60;101236.38;4208786;28;20028;-70
2024/02/04 03:15:00;;;;;;;;;;;;;;;7.97;85.77;101247.13;4208606;28;20038;-70
2024/02/04 03:17:02;;;;;;;;;;;;;;;7.96;86.01;101248.09;4211105;28;20043;-70
2024/02/04 03:19:05;;;;;;;;;;;;;;;7.94;86.05;101243.72;4192800;28;20027;-70
2024/02/04 03:21:12;;;;;;;;;;;;;;;7.92;86.14;101232.25;4192784;28;20023;-70
2024/02/04 03:23:14;;;;;;;;;;;;;;;7.93;86.41;101233.09;4193243;28;20381;-70
2024/02/04 03:25:16;;;;;;;;;;;;;;;7.93;86.25;101242.03;4209625;28;20018;-69
2024/02/04 03:27:18;;;;;;;;;;;;;;;7.92;86.60;101232.25;4208862;28;20019;-70
2024/02/04 03:29:22;;;;;;;;;;;;;;;7.94;86.71;101235.63;4191708;28;20485;-70
2024/02/04 03:31:26;;;;;;;;;;;;;;;7.92;86.96;101234.94;4209670;28;20019;-70
2024/02/04 03:33:27;;;;;;;;;;;;;;;7.94;86.71;101241.03;4210844;28;20019;-70
2024/02/04 03:35:29;;;;;;;;;;;;;;;7.93;86.59;101230.41;4193143;28;20391;-70
2024/02/04 03:37:31;;;;;;;;;;;;;;;7.94;86.77;101215.97;4210173;28;20014;-70
2024/02/04 03:39:33;;;;;;;;;;;;;;;7.92;87.08;101229.56;4190987;28;20015;-69
2024/02/04 03:41:35;;;;;;;;;;;;;;;7.92;87.03;101223.34;4192427;28;19935;-70
2024/02/04 03:43:37;;;;;;;;;;;;;;;7.92;86.92;101218.81;4208954;28;20014;-70
2024/02/04 03:45:39;;;;;;;;;;;;;;;7.92;86.97;101223.34;4209034;28;20023;-69
2024/02/04 03:47:44;;;;;;;;;;;;;;;7.92;86.95;101220.66;4192062;28;20030;-70
2024/02/04 03:49:47;;;;;;;;;;;;;;;7.92;86.72;101209.91;4192803;28;20015;-70
2024/02/04 03:51:49;;;;;;;;;;;;;;;7.92;86.99;101210.75;4209717;28;20018;-70
2024/02/04 03:53:51;;;;;;;;;;;;;;;7.92;86.97;101194.59;4192821;28;20400;-70
2024/02/04 03:55:54;;;;;;;;;;;;;;;7.93;86.56;101204.38;4185134;28;20015;-70
2024/02/04 03:57:57;;;;;;;;;;;;;;;7.91;86.59;101192.91;4210127;28;20060;-70
2024/02/04 03:59:58;;;;;;;;;;;;;;;7.92;86.65;101194.59;4211511;28;20011;-70
2024/02/04 04:02:00;;;;;;;;;;;;;;;7.93;86.81;101203.50;4212975;28;20409;-70
2024/02/04 04:04:03;;;;;;;;;;;;;;;7.92;86.77;101197.28;4213703;28;20121;-70
2024/02/04 04:06:04;;;;;;;;;;;;;;;7.93;87.00;101195.44;4212911;28;20582;-70
2024/02/04 04:08:06;;;;;;;;;;;;;;;7.93;86.68;101190.06;4212754;28;20027;-70
2024/02/04 04:10:09;;;;;;;;;;;;;;;7.93;86.91;101190.06;4210798;28;20054;-70
2024/02/04 04:12:10;;;;;;;;;;;;;;;7.94;86.61;101191.78;4212291;28;20027;-70
2024/02/04 04:14:12;;;;;;;;;;;;;;;7.96;86.36;101184.38;4212647;28;20019;-70
2024/02/04 04:16:14;;;;;;;;;;;;;;;7.94;86.04;101191.78;4213572;28;20054;-70
2024/02/04 04:18:16;;;;;;;;;;;;;;;7.92;86.05;101188.38;4212121;28;20011;-70
2024/02/04 04:20:20;;;;;;;;;;;;;;;7.91;86.09;101181.31;4212865;28;20350;-70
2024/02/04 04:22:22;;;;;;;;;;;;;;;7.90;85.64;101185.84;4212318;28;20421;-69
2024/02/04 04:24:23;;;;;;;;;;;;;;;7.89;85.69;101180.63;4213560;28;20022;-70
2024/02/04 04:26:25;;;;;;;;;;;;;;;7.88;85.55;101174.41;4186997;28;19925;-70
2024/02/04 04:28:27;;;;;;;;;;;;;;;7.88;85.53;101169.03;4212686;28;20026;-70
2024/02/04 04:30:29;;;;;;;;;;;;;;;7.87;85.48;101167.31;4212045;28;20011;-70
2024/02/04 04:32:32;;;;;;;;;;;;;;;7.86;85.48;101162.09;4211503;28;20369;-70
2024/02/04 04:34:34;;;;;;;;;;;;;;;7.86;85.21;101164.78;4211900;28;20018;-70
2024/02/04 04:36:37;;;;;;;;;;;;;;;7.84;85.37;101161.41;4212474;28;20043;-70
2024/02/04 04:38:39;;;;;;;;;;;;;;;7.83;85.29;101173.97;4212871;28;20023;-70
2024/02/04 04:40:41;;;;;;;;;;;;;;;7.82;85.17;101161.56;4211549;28;20032;-70
2024/02/04 04:42:43;;;;;;;;;;;;;;;7.81;85.25;101169.75;4210938;28;19957;-70
2024/02/04 04:44:45;;;;;;;;;;;;;;;7.81;85.21;101169.75;4212274;28;20028;-70
2024/02/04 04:46:47;;;;;;;;;;;;;;;7.80;84.66;101168.91;4212839;28;20014;-70
2024/02/04 04:48:49;;;;;;;;;;;;;;;7.79;84.70;101163.66;4213172;28;20032;-70
2024/02/04 04:50:51;;;;;;;;;;;;;;;7.78;84.96;101167.38;4212141;28;20055;-70
2024/02/04 04:52:54;;;;;;;;;;;;;;;7.76;84.82;101168.34;4212636;28;20118;-70
2024/02/04 04:54:56;;;;;;;;;;;;;;;7.74;84.54;101164.97;4213612;28;20429;-69
2024/02/04 04:56:58;;;;;;;;;;;;;;;7.73;84.77;101157.06;4212278;28;20019;-70
2024/02/04 04:59:00;;;;;;;;;;;;;;;7.72;84.57;101152.66;4212482;28;20401;-70
2024/02/04 05:01:02;;;;;;;;;;;;;;;7.72;84.29;101155.34;4212683;28;20010;-70
2024/02/04 05:03:05;;;;;;;;;;;;;;;7.69;84.13;101147.59;4212911;28;19932;-70
2024/02/04 05:05:07;;;;;;;;;;;;;;;7.68;84.15;101141.38;4212391;28;20377;-70
2024/02/04 05:07:10;;;;;;;;;;;;;;;7.68;84.21;101143.19;4211561;28;20039;-70
2024/02/04 05:09:13;;;;;;;;;;;;;;;7.66;84.37;101129.06;4211674;28;20014;-70
2024/02/04 05:11:15;;;;;;;;;;;;;;;7.66;84.29;101126.38;4208627;28;20003;-70
2024/02/04 05:13:16;;;;;;;;;;;;;;;7.65;84.30;101132.72;4210182;28;20026;-70
2024/02/04 05:15:18;;;;;;;;;;;;;;;7.63;83.91;101132.88;4212051;28;19960;-70
2024/02/04 05:17:19;;;;;;;;;;;;;;;7.63;83.80;101129.34;4212078;28;20018;-70
2024/02/04 05:19:21;;;;;;;;;;;;;;;7.60;83.90;101126.97;4211554;28;20030;-70
2024/02/04 05:21:23;;;;;;;;;;;;;;;7.58;83.85;101130.63;4211576;28;20019;-70
2024/02/04 05:23:25;;;;;;;;;;;;;;;7.55;83.56;101130.97;4212971;28;20026;-70
2024/02/04 05:25:27;;;;;;;;;;;;;;;7.55;83.74;101132.78;4211656;28;20031;-70
2024/02/04 05:27:29;;;;;;;;;;;;;;;7.52;83.52;101133.94;4211989;28;20046;-70
2024/02/04 05:29:30;;;;;;;;;;;;;;;7.51;83.74;101134.94;4211813;28;20058;-70
2024/02/04 05:31:32;;;;;;;;;;;;;;;7.50;83.58;101132.38;4210760;28;20014;-69
2024/02/04 05:33:34;;;;;;;;;;;;;;;7.48;83.58;101132.53;4211498;28;20022;-70
2024/02/04 05:35:37;;;;;;;;;;;;;;;7.47;83.80;101120.06;4211711;28;20019;-70
2024/02/04 05:37:39;;;;;;;;;;;;;;;7.45;83.90;101123.94;4211703;28;20015;-70
2024/02/04 05:39:41;;;;;;;;;;;;;;;7.43;83.77;101113.31;4210810;28;20022;-70
2024/02/04 05:41:43;;;;;;;;;;;;;;;7.42;83.65;101113.47;4210493;28;20090;-70
2024/02/04 05:43:46;;;;;;;;;;;;;;;7.40;83.56;101108.25;4211940;28;19927;-70
2024/02/04 05:45:48;;;;;;;;;;;;;;;7.41;83.65;101109.91;4210921;28;20437;-70
2024/02/04 05:47:50;;;;;;;;;;;;;;;7.40;83.67;101110.94;4211786;28;20023;-70
2024/02/04 05:49:52;;;;;;;;;;;;;;;7.38;83.63;101113.75;4211315;28;20031;-70
2024/02/04 05:51:54;;;;;;;;;;;;;;;7.38;83.78;101115.59;4210403;28;20369;-70
2024/02/04 05:53:56;;;;;;;;;;;;;;;7.37;83.88;101130.03;4211920;28;20015;-70
2024/02/04 05:55:58;;;;;;;;;;;;;;;7.35;83.93;101124.81;4211386;28;20368;-69
2024/02/04 05:58:01;;;;;;;;;;;;;;;7.35;83.87;101116.75;4211668;28;20014;-70
2024/02/04 06:00:04;;;;;;;;;;;;;;;7.34;84.05;101133.00;4210991;28;20362;-70
2024/02/04 06:02:11;;;;;;;;;;;;;;;7.33;83.81;101124.09;4210693;28;20111;-70
2024/02/04 06:04:14;;;;;;;;;;;;;;;7.32;84.03;101124.22;4211198;28;20488;-70
2024/02/04 06:06:16;;;;;;;;;;;;;;;7.25;84.05;101110.53;4210527;28;20027;-70
2024/02/04 06:08:18;;;;;;;;;;;;;;;7.31;84.14;101128.75;4210374;28;20051;-70
2024/02/04 06:10:20;;;;;;;;;;;;;;;7.31;84.07;101125.25;4209488;28;19956;-69
2024/02/04 06:12:21;;;;;;;;;;;;;;;7.29;83.70;101125.38;4211116;28;20014;-70
2024/02/04 06:14:25;;;;;;;;;;;;;;;7.28;84.06;101126.38;4210680;28;20027;-70
2024/02/04 06:16:27;;;;;;;;;;;;;;;7.28;83.92;101125.53;4210271;28;20014;-70
2024/02/04 06:18:29;;;;;;;;;;;;;;;7.27;84.01;101124.66;4210898;28;20030;-70
2024/02/04 06:20:31;;;;;;;;;;;;;;;7.24;84.18;101122.31;4211400;28;20888;-69
2024/02/04 06:22:33;;;;;;;;;;;;;;;7.24;84.35;101122.31;4210130;28;20473;-70
2024/02/04 06:24:36;;;;;;;;;;;;;;;7.25;84.44;101115.06;4211238;28;19993;-70
2024/02/04 06:26:39;;;;;;;;;;;;;;;7.24;84.40;101121.44;4211174;28;20023;-69
2024/02/04 06:28:40;;;;;;;;;;;;;;;7.25;84.73;101115.06;4211153;28;20382;-69
2024/02/04 06:30:43;;;;;;;;;;;;;;;7.24;84.60;101108.88;4210790;28;19928;-70
2024/02/04 06:32:45;;;;;;;;;;;;;;;7.24;84.51;101114.25;4210354;28;20015;-70
2024/02/04 06:34:47;;;;;;;;;;;;;;;7.26;84.70;101116.75;4201690;28;20020;-70
2024/02/04 06:36:49;;;;;;;;;;;;;;;7.26;84.58;101122.13;4209315;28;20478;-70
2024/02/04 06:38:51;;;;;;;;;;;;;;;7.24;84.93;101119.63;4211383;28;20008;-70
2024/02/04 06:40:53;;;;;;;;;;;;;;;7.26;84.89;101122.13;4209723;28;20023;-70
2024/02/04 06:42:55;;;;;;;;;;;;;;;7.26;84.97;101101.50;4210668;28;20022;-70
2024/02/04 06:44:56;;;;;;;;;;;;;;;7.27;85.35;101105.03;4210735;28;20000;-70
2024/02/04 06:47:00;;;;;;;;;;;;;;;7.27;85.68;101105.03;4211508;28;19924;-70
2024/02/04 06:49:02;;;;;;;;;;;;;;;7.28;85.62;101123.69;4210348;28;20026;-70
2024/02/04 06:51:03;;;;;;;;;;;;;;;7.29;85.63;101111.94;4210679;28;20019;-70
2024/02/04 06:53:05;;;;;;;;;;;;;;;7.29;85.70;101120.00;4210940;28;19966;-70
2024/02/04 06:55:07;;;;;;;;;;;;;;;7.31;85.79;101117.19;4210566;28;20006;-69
2024/02/04 06:57:09;;;;;;;;;;;;;;;7.30;85.96;101124.38;4208930;28;20026;-69
2024/02/04 06:59:11;;;;;;;;;;;;;;;7.31;86.28;101119.88;4210870;28;20018;-70
2024/02/04 07:01:13;;;;;;;;;;;;;;;7.32;86.54;101118.84;4210237;28;20497;-70
2024/02/04 07:03:17;;;;;;;;;;;;;;;7.32;86.07;101114.34;4210794;28;20457;-68
2024/02/04 07:05:22;;;;;;;;;;;;;;;7.33;86.10;101113.34;4207342;28;19974;-69
2024/02/04 07:07:23;;;;;;;;;;;;;;;7.33;86.15;101112.50;4209453;28;20456;-69
2024/02/04 07:09:25;;;;;;;;;;;;;;;7.35;86.38;101118.56;4192384;28;19968;-68
2024/02/04 07:11:27;;;;;;;;;;;;;;;7.36;86.39;101109.53;4209428;28;20372;-68
2024/02/04 07:13:29;;;;;;;;;;;;;;;7.35;86.21;101124.81;4210067;28;20031;-69
2024/02/04 07:15:31;;;;;;;;;;;;;;;7.36;86.21;101126.47;4210655;28;20011;-69
2024/02/04 07:17:33;;;;;;;;;;;;;;;7.35;86.16;101114.06;4209299;28;20039;-69
2024/02/04 07:19:36;;;;;;;;;;;;;;;7.35;86.07;101114.06;4210075;28;20019;-70
2024/02/04 07:21:38;;;;;;;;;;;;;;;7.36;85.97;101114.88;4209931;28;20011;-70
2024/02/04 07:23:40;;;;;;;;;;;;;;;7.37;85.82;101113.91;4210062;28;20353;-69
2024/02/04 07:25:42;;;;;;;;;;;;;;;7.37;86.04;101100.47;4209474;28;19928;-68
2024/02/04 07:27:45;;;;;;;;;;;;;;;7.37;86.10;101101.31;4209825;28;20019;-69
2024/02/04 07:29:47;;;;;;;;;;;;;;;7.39;85.81;101098.47;4210271;28;20030;-69
2024/02/04 07:31:49;;;;;;;;;;;;;;;7.38;85.88;101100.31;4210164;28;20015;-70
2024/02/04 07:33:51;;;;;;;;;;;;;;;7.40;85.64;101100.19;4211436;28;20010;-69
2024/02/04 07:35:55;;;;;;;;;;;;;;;7.39;85.47;101093.94;4212372;28;20023;-68
2024/02/04 07:37:56;;;;;;;;;;;;;;;7.40;85.47;101098.31;4213112;28;20023;-68
2024/02/04 07:39:59;;;;;;;;;;;;;;;7.41;85.52;101096.47;4213310;28;19928;-69
2024/02/04 07:42:02;;;;;;;;;;;;;;;7.42;85.42;101108.94;4212490;28;20368;-69
2024/02/04 07:44:04;;;;;;;;;;;;;;;7.42;85.84;101098.19;4211179;28;20007;-68
2024/02/04 07:46:08;;;;;;;;;;;;;;;7.44;85.77;101095.34;4212461;28;19924;-68
2024/02/04 07:48:10;;;;;;;;;;;;;;;7.42;85.53;101087.44;4211903;28;20039;-69
2024/02/04 07:50:12;;;;;;;;;;;;;;;7.45;85.62;101075.56;4212056;28;20023;-68
2024/02/04 07:52:15;;;;;;;;;;;;;;;7.46;85.38;101082.59;4212467;28;20469;-68
2024/02/04 07:54:17;;;;;;;;;;;;;;;7.47;85.54;101070.88;4213232;28;20028;-68
2024/02/04 07:56:19;;;;;;;;;;;;;;;7.48;85.48;101073.41;4211321;28;20031;-68
2024/02/04 07:58:22;;;;;;;;;;;;;;;7.48;85.48;101067.19;4212079;28;20019;-68
2024/02/04 08:00:24;;;;;;;;;;;;;;;7.49;85.55;101058.97;4211085;28;20035;-69
2024/02/04 08:02:25;;;;;;;;;;;;;;;7.50;85.62;101068.72;4211352;28;20022;-69
2024/02/04 08:04:26;;;;;;;;;;;;;;;7.50;85.44;101060.66;4212559;28;19931;-68
2024/02/04 08:06:28;;;;;;;;;;;;;;;7.51;85.34;101069.59;4212209;28;19928;-68
2024/02/04 08:08:32;;;;;;;;;;;;;;;7.52;85.35;101071.25;4211707;28;20016;-68
2024/02/04 08:10:34;;;;;;;;;;;;;;;7.54;85.60;101077.34;4210412;28;20388;-68
2024/02/04 08:12:36;;;;;;;;;;;;;;;7.54;85.76;101082.72;4211861;28;20342;-68
2024/02/04 08:14:37;;;;;;;;;;;;;;;7.56;85.63;101076.19;4213004;28;20054;-68
2024/02/04 08:16:39;;;;;;;;;;;;;;;7.57;85.90;101075.19;4211944;28;20022;-69
2024/02/04 08:18:40;;;;;;;;;;;;;;;7.58;85.94;101074.19;4211718;28;20019;-68
2024/02/04 08:20:42;;;;;;;;;;;;;;;7.59;85.93;101072.38;4209997;28;20382;-68
2024/02/04 08:22:44;;;;;;;;;;;;;;;7.61;85.74;101056.91;4210054;28;20011;-68
2024/02/04 08:24:47;;;;;;;;;;;;;;;7.63;85.46;101060.28;4208874;28;20011;-69
2024/02/04 08:26:49;;;;;;;;;;;;;;;7.65;85.32;101065.53;4211180;28;20677;-68
2024/02/04 08:28:51;;;;;;;;;;;;;;;7.66;85.11;101076.13;4210592;28;20043;-69
2024/02/04 08:30:54;;;;;;;;;;;;;;;7.68;84.94;101057.16;4192839;28;20015;-69
2024/02/04 08:32:55;;;;;;;;;;;;;;;7.69;84.66;101064.25;4209143;28;20047;-69
2024/02/04 08:34:58;;;;;;;;;;;;;;;7.70;84.69;101065.94;4208857;28;20047;-68
2024/02/04 08:37:00;;;;;;;;;;;;;;;7.72;84.98;101069.31;4209474;28;20441;-69
2024/02/04 08:39:02;;;;;;;;;;;;;;;7.74;84.74;101056.56;4208056;28;20019;-69
2024/02/04 08:41:05;;;;;;;;;;;;;;;7.73;84.69;101057.56;4206120;28;20027;-68
2024/02/04 08:43:06;;;;;;;;;;;;;;;7.74;84.57;101065.50;4208392;28;20366;-69
2024/02/04 08:45:09;;;;;;;;;;;;;;;7.75;84.70;101059.09;4193268;28;19971;-69
2024/02/04 08:47:13;;;;;;;;;;;;;;;7.76;84.63;101059.97;4209402;28;19928;-69
2024/02/04 08:49:15;;;;;;;;;;;;;;;7.76;84.33;101057.28;4209505;28;20010;-68
2024/02/04 08:51:18;;;;;;;;;;;;;;;7.79;84.09;101051.59;4191931;28;20311;-68
2024/02/04 08:53:19;;;;;;;;;;;;;;;7.78;83.82;101052.59;4209051;28;19924;-68
2024/02/04 08:55:22;;;;;;;;;;;;;;;7.79;83.92;101042.66;4208168;28;19935;-68
2024/02/04 08:57:25;;;;;;;;;;;;;;;7.80;83.84;101041.69;4208284;28;20014;-70
2024/02/04 08:59:27;;;;;;;;;;;;;;;7.80;83.93;101050.56;4209595;28;20351;-69
2024/02/04 09:01:29;;;;;;;;;;;;;;;7.81;83.66;101049.59;4193022;28;19956;-68
2024/02/04 09:03:31;;;;;;;;;;;;;;;7.81;83.79;101041.53;4211169;28;20019;-68
2024/02/04 09:05:33;;;;;;;;;;;;;;;7.81;83.72;101036.16;4208050;28;20031;-68
2024/02/04 09:07:35;;;;;;;;;;;;;;;7.83;83.66;101030.63;4209129;28;19924;-69
2024/02/04 09:09:38;;;;;;;;;;;;;;;7.85;83.53;101037.53;4205027;28;20032;-69
2024/02/04 09:11:40;;;;;;;;;;;;;;;7.85;83.41;101034.00;4206489;28;20031;-69
2024/02/04 09:13:44;;;;;;;;;;;;;;;7.87;83.31;101032.03;4208672;28;20019;-66
2024/02/04 09:15:46;;;;;;;;;;;;;;;7.87;83.15;101032.84;4174233;28;20112;-69
2024/02/04 09:17:48;;;;;;;;;;;;;;;7.87;82.99;101027.47;4190106;28;20752;-69
2024/02/04 09:19:50;;;;;;;;;;;;;;;7.89;82.89;101022.78;4207908;28;20014;-69
2024/02/04 09:21:52;;;;;;;;;;;;;;;7.90;82.78;101042.47;4190701;28;20468;-69
2024/02/04 09:23:55;;;;;;;;;;;;;;;7.92;82.74;101016.25;4206519;28;19928;-67
2024/02/04 09:25:57;;;;;;;;;;;;;;;7.93;82.41;101024.19;4205888;28;20892;-68
2024/02/04 09:28:03;;;;;;;;;;;;;;;7.92;82.41;101014.41;4192817;28;19974;-71
2024/02/04 09:30:13;;;;;;;;;;;;;;;7.93;82.55;101016.09;4206213;28;19932;-69
2024/02/04 09:32:14;;;;;;;;;;;;;;;7.94;82.70;101023.16;4207040;28;20365;-70
2024/02/04 09:34:16;;;;;;;;;;;;;;;7.95;82.20;101037.47;4190581;28;19956;-71
2024/02/04 09:36:18;;;;;;;;;;;;;;;7.95;81.92;101029.41;4206237;28;20007;-71
2024/02/04 09:38:20;;;;;;;;;;;;;;;7.98;82.07;101028.22;4206238;28;20374;-70
2024/02/04 09:40:22;;;;;;;;;;;;;;;8.00;82.10;101026.25;4205164;28;20031;-69
2024/02/04 09:42:24;;;;;;;;;;;;;;;8.00;81.74;101012.81;4207082;28;19967;-70
2024/02/04 09:44:25;;;;;;;;;;;;;;;8.00;81.64;101019.03;4207065;28;20015;-69
2024/02/04 09:46:30;;;;;;;;;;;;;;;7.99;81.64;101017.31;4207489;28;20002;-69
2024/02/04 09:48:32;;;;;;;;;;;;;;;8.02;81.62;101024.25;4206657;28;19925;-68
2024/02/04 09:50:34;;;;;;;;;;;;;;;8.03;81.57;101023.25;4209324;28;20030;-69
2024/02/04 09:52:37;;;;;;;;;;;;;;;8.03;81.59;101015.19;4208679;28;20050;-69
2024/02/04 09:54:40;;;;;;;;;;;;;;;8.04;81.68;101014.16;4208619;28;20042;-68
2024/02/04 09:56:42;;;;;;;;;;;;;;;8.06;81.85;101017.56;4208732;28;20466;-70
2024/02/04 09:58:44;;;;;;;;;;;;;;;8.10;81.94;101010.88;4192151;28;20489;-70
2024/02/04 10:00:45;;;;;;;;;;;;;;;8.12;81.60;101041.19;4208302;28;20015;-70
2024/02/04 10:02:49;;;;;;;;;;;;;;;8.16;81.68;101001.34;4208556;28;20019;-71
2024/02/04 10:04:50;;;;;;;;;;;;;;;8.15;81.46;100992.44;4207741;28;19928;-69
2024/02/04 10:06:52;;;;;;;;;;;;;;;8.16;81.51;100991.41;4207021;28;19928;-69
2024/02/04 10:08:54;;;;;;;;;;;;;;;8.18;81.79;101000.19;4210684;28;19924;-70
2024/02/04 10:10:58;;;;;;;;;;;;;;;8.21;81.81;101002.59;4208753;28;20019;-70
2024/02/04 10:13:05;;;;;;;;;;;;;;;8.25;82.21;100989.66;4209057;28;20030;-70
2024/02/04 10:15:08;;;;;;;;;;;;;;;8.27;82.29;101001.94;4208519;28;20441;-69
2024/02/04 10:17:14;;;;;;;;;;;;;;;8.29;82.10;100997.25;4207647;28;20027;-70
2024/02/04 10:19:20;;;;;;;;;;;;;;;8.35;82.17;100995.78;4208478;28;20015;-68
2024/02/04 10:21:25;;;;;;;;;;;;;;;8.38;81.92;101000.00;4207539;28;19928;-68
2024/02/04 10:23:27;;;;;;;;;;;;;;;8.40;82.14;101000.69;4206774;28;19939;-68
2024/02/04 10:25:32;;;;;;;;;;;;;;;8.41;81.98;100994.31;4177090;28;20377;-68
2024/02/04 10:27:34;;;;;;;;;;;;;;;8.42;81.77;100987.94;4210377;28;20050;-69
2024/02/04 10:29:36;;;;;;;;;;;;;;;8.45;81.76;100993.88;4208131;28;20642;-68
2024/02/04 10:31:38;;;;;;;;;;;;;;;8.48;81.60;100993.56;4210155;28;20437;-69
2024/02/04 10:33:40;;;;;;;;;;;;;;;8.51;81.15;100988.84;4210106;28;20425;-69
2024/02/04 10:35:43;;;;;;;;;;;;;;;8.51;80.87;100991.56;4210056;28;20011;-68
2024/02/04 10:37:45;;;;;;;;;;;;;;;8.54;80.89;100964.31;4209223;28;20031;-69